sensor_id;sensor_type;location;lat;lon;timestamp;pressure;altitude;pressure_sealevel;temperature;humidity
5877;BME280;2964;42.144;24.730;2023-07-30T00:01:49;147560.78;;;24.18;54.82
5877;BME280;2964;42.144;24.730;2023-07-30T00:04:16;147536.69;;;24.08;55.08
5877;BME280;2964;42.144;24.730;2023-07-30T00:06:43;147444.06;;;23.70;56.17
5877;BME280;2964;42.144;24.730;2023-07-30T00:09:09;147447.88;;;23.72;57.82
5877;BME280;2964;42.144;24.730;2023-07-30T00:11:37;147428.81;;;23.64;57.88
5877;BME280;2964;42.144;24.730;2023-07-30T00:14:04;147418.66;;;23.60;57.94
5877;BME280;2964;42.144;24.730;2023-07-30T00:16:31;147404.72;;;23.55;58.10
5877;BME280;2964;42.144;24.730;2023-07-30T00:18:58;147435.19;;;23.67;58.13
5877;BME280;2964;42.144;24.730;2023-07-30T00:21:24;147449.13;;;23.73;57.85
5877;BME280;2964;42.144;24.730;2023-07-30T00:23:51;147474.50;;;23.83;57.61
5877;BME280;2964;42.144;24.730;2023-07-30T00:26:18;147417.41;;;23.60;58.30
5877;BME280;2964;42.144;24.730;2023-07-30T00:28:46;147386.97;;;23.47;58.89
5877;BME280;2964;42.144;24.730;2023-07-30T00:31:13;147459.25;;;23.77;58.21
5877;BME280;2964;42.144;24.730;2023-07-30T00:33:39;147463.06;;;23.78;58.50
5877;BME280;2964;42.144;24.730;2023-07-30T00:36:06;147417.41;;;23.60;58.98
5877;BME280;2964;42.144;24.730;2023-07-30T00:38:33;147361.63;;;23.37;60.05
5877;BME280;2964;42.144;24.730;2023-07-30T00:40:59;147333.75;;;23.26;60.77
5877;BME280;2964;42.144;24.730;2023-07-30T00:43:26;147298.22;;;23.11;61.79
5877;BME280;2964;42.144;24.730;2023-07-30T00:45:54;147319.78;;;23.20;61.34
5877;BME280;2964;42.144;24.730;2023-07-30T00:48:21;147276.63;;;23.03;60.54
5877;BME280;2964;42.144;24.730;2023-07-30T00:50:48;147347.69;;;23.31;61.13
5877;BME280;2964;42.144;24.730;2023-07-30T00:53:16;147362.88;;;23.38;61.15
5877;BME280;2964;42.144;24.730;2023-07-30T00:55:44;147304.56;;;23.14;62.73
5877;BME280;2964;42.144;24.730;2023-07-30T00:58:11;147261.41;;;22.97;63.15
5877;BME280;2964;42.144;24.730;2023-07-30T01:00:38;147291.88;;;23.09;62.83
5877;BME280;2964;42.144;24.730;2023-07-30T01:03:07;147253.81;;;22.93;63.38
5877;BME280;2964;42.144;24.730;2023-07-30T01:05:34;147233.53;;;22.85;64.06
5877;BME280;2964;42.144;24.730;2023-07-30T01:08:00;147233.53;;;22.85;64.16
5877;BME280;2964;42.144;24.730;2023-07-30T01:10:30;147276.63;;;23.03;63.63
5877;BME280;2964;42.144;24.730;2023-07-30T01:12:59;147333.75;;;23.26;62.88
5877;BME280;2964;42.144;24.730;2023-07-30T01:15:26;147347.69;;;23.31;62.94
5877;BME280;2964;42.144;24.730;2023-07-30T01:17:53;147347.69;;;23.31;62.87
5877;BME280;2964;42.144;24.730;2023-07-30T01:20:22;147399.66;;;23.52;62.90
5877;BME280;2964;42.144;24.730;2023-07-30T01:22:50;147403.47;;;23.54;62.26
5877;BME280;2964;42.144;24.730;2023-07-30T01:25:17;147411.09;;;23.57;62.87
5877;BME280;2964;42.144;24.730;2023-07-30T01:27:49;147400.91;;;23.53;62.81
5877;BME280;2964;42.144;24.730;2023-07-30T01:30:22;147347.69;;;23.31;64.12
5877;BME280;2964;42.144;24.730;2023-07-30T01:32:52;147370.50;;;23.41;63.82
5877;BME280;2964;42.144;24.730;2023-07-30T01:35:20;147383.16;;;23.46;65.14
5877;BME280;2964;42.144;24.730;2023-07-30T01:37:47;147336.25;;;23.27;66.64
5877;BME280;2964;42.144;24.730;2023-07-30T01:40:15;147196.78;;;22.70;69.02
5877;BME280;2964;42.144;24.730;2023-07-30T01:42:42;147232.25;;;22.85;68.59
5877;BME280;2964;42.144;24.730;2023-07-30T01:45:09;147260.13;;;22.96;68.03
5877;BME280;2964;42.144;24.730;2023-07-30T01:47:35;147261.41;;;22.97;67.67
5877;BME280;2964;42.144;24.730;2023-07-30T01:50:02;147262.69;;;22.97;67.03
5877;BME280;2964;42.144;24.730;2023-07-30T01:52:29;147309.63;;;23.16;64.92
5877;BME280;2964;42.144;24.730;2023-07-30T01:54:56;147319.78;;;23.20;64.08
5877;BME280;2964;42.144;24.730;2023-07-30T01:57:25;147322.31;;;23.21;62.75
5877;BME280;2964;42.144;24.730;2023-07-30T01:59:51;147324.88;;;23.22;62.71
5877;BME280;2964;42.144;24.730;2023-07-30T02:02:18;147317.25;;;23.19;60.19
5877;BME280;2964;42.144;24.730;2023-07-30T02:04:45;147294.41;;;23.10;59.72
5877;BME280;2964;42.144;24.730;2023-07-30T02:07:11;147234.78;;;22.86;60.45
5877;BME280;2964;42.144;24.730;2023-07-30T02:09:38;147176.47;;;22.62;61.25
5877;BME280;2964;42.144;24.730;2023-07-30T02:12:06;147119.47;;;22.39;62.32
5877;BME280;2964;42.144;24.730;2023-07-30T02:14:34;147061.13;;;22.15;63.68
5877;BME280;2964;42.144;24.730;2023-07-30T02:17:00;147101.72;;;22.32;62.92
5877;BME280;2964;42.144;24.730;2023-07-30T02:19:27;147142.28;;;22.48;62.71
5877;BME280;2964;42.144;24.730;2023-07-30T02:21:54;147156.22;;;22.54;62.79
5877;BME280;2964;42.144;24.730;2023-07-30T02:24:20;147184.09;;;22.65;62.16
5877;BME280;2964;42.144;24.730;2023-07-30T02:26:47;147075.06;;;22.21;63.64
5877;BME280;2964;42.144;24.730;2023-07-30T02:29:14;147002.84;;;21.92;65.37
5877;BME280;2964;42.144;24.730;2023-07-30T02:31:42;146987.66;;;21.86;65.65
5877;BME280;2964;42.144;24.730;2023-07-30T02:34:08;147010.47;;;21.95;65.52
5877;BME280;2964;42.144;24.730;2023-07-30T02:36:35;147068.72;;;22.18;64.67
5877;BME280;2964;42.144;24.730;2023-07-30T02:39:02;146993.97;;;21.88;65.57
5877;BME280;2964;42.144;24.730;2023-07-30T02:41:29;147015.53;;;21.97;65.53
5877;BME280;2964;42.144;24.730;2023-07-30T02:43:55;147026.91;;;22.02;65.52
5877;BME280;2964;42.144;24.730;2023-07-30T02:46:22;147002.84;;;21.92;66.23
5877;BME280;2964;42.144;24.730;2023-07-30T02:48:50;146993.97;;;21.88;67.09
5877;BME280;2964;42.144;24.730;2023-07-30T02:51:17;147000.31;;;21.91;66.26
5877;BME280;2964;42.144;24.730;2023-07-30T02:53:43;147056.06;;;22.13;65.10
5877;BME280;2964;42.144;24.730;2023-07-30T02:56:10;146990.19;;;21.87;66.72
5877;BME280;2964;42.144;24.730;2023-07-30T02:58:37;147076.31;;;22.22;65.33
5877;BME280;2964;42.144;24.730;2023-07-30T03:01:07;147134.66;;;22.45;64.35
5877;BME280;2964;42.144;24.730;2023-07-30T03:03:34;147097.94;;;22.30;64.46
5877;BME280;2964;42.144;24.730;2023-07-30T03:06:03;147095.38;;;22.29;65.13
5877;BME280;2964;42.144;24.730;2023-07-30T03:08:29;147124.53;;;22.41;64.82
5877;BME280;2964;42.144;24.730;2023-07-30T03:10:58;147127.06;;;22.42;64.80
5877;BME280;2964;42.144;24.730;2023-07-30T03:13:24;147103.00;;;22.32;65.03
5877;BME280;2964;42.144;24.730;2023-07-30T03:15:51;147045.91;;;22.09;66.02
5877;BME280;2964;42.144;24.730;2023-07-30T03:18:18;147090.31;;;22.27;65.52
5877;BME280;2964;42.144;24.730;2023-07-30T03:20:44;147053.53;;;22.12;65.72
5877;BME280;2964;42.144;24.730;2023-07-30T03:23:12;147064.94;;;22.17;65.40
5877;BME280;2964;42.144;24.730;2023-07-30T03:25:39;147029.47;;;22.03;65.60
5877;BME280;2964;42.144;24.730;2023-07-30T03:28:06;146996.53;;;21.89;65.78
5877;BME280;2964;42.144;24.730;2023-07-30T03:30:32;146934.47;;;21.64;67.20
5877;BME280;2964;42.144;24.730;2023-07-30T03:32:59;146995.25;;;21.89;66.53
5877;BME280;2964;42.144;24.730;2023-07-30T03:35:25;147005.34;;;21.93;66.36
5877;BME280;2964;42.144;24.730;2023-07-30T03:37:52;147002.84;;;21.92;66.41
5877;BME280;2964;42.144;24.730;2023-07-30T03:40:20;147031.97;;;22.04;66.14
5877;BME280;2964;42.144;24.730;2023-07-30T03:42:47;146999.03;;;21.90;66.13
5877;BME280;2964;42.144;24.730;2023-07-30T03:45:13;146935.72;;;21.65;67.18
5877;BME280;2964;42.144;24.730;2023-07-30T03:47:40;147015.53;;;21.97;66.51
5877;BME280;2964;42.144;24.730;2023-07-30T03:50:07;147023.09;;;22.00;66.04
5877;BME280;2964;42.144;24.730;2023-07-30T03:52:34;147085.19;;;22.25;65.47
5877;BME280;2964;42.144;24.730;2023-07-30T03:55:01;147096.69;;;22.30;65.14
5877;BME280;2964;42.144;24.730;2023-07-30T03:57:29;147106.78;;;22.34;65.66
5877;BME280;2964;42.144;24.730;2023-07-30T03:59:55;147095.38;;;22.29;66.88
5877;BME280;2964;42.144;24.730;2023-07-30T04:02:22;147095.38;;;22.29;66.62
5877;BME280;2964;42.144;24.730;2023-07-30T04:04:49;147089.06;;;22.27;66.04
5877;BME280;2964;42.144;24.730;2023-07-30T04:07:15;147005.34;;;21.93;66.50
5877;BME280;2964;42.144;24.730;2023-07-30T04:09:42;147059.84;;;22.15;66.47
5877;BME280;2964;42.144;24.730;2023-07-30T04:12:09;146919.28;;;21.58;67.29
5877;BME280;2964;42.144;24.730;2023-07-30T04:14:37;146849.53;;;21.30;69.28
5877;BME280;2964;42.144;24.730;2023-07-30T04:17:04;146961.06;;;21.75;67.23
5877;BME280;2964;42.144;24.730;2023-07-30T04:19:30;147000.31;;;21.91;66.74
5877;BME280;2964;42.144;24.730;2023-07-30T04:21:57;147000.31;;;21.91;66.09
5877;BME280;2964;42.144;24.730;2023-07-30T04:24:23;147078.88;;;22.23;65.81
5877;BME280;2964;42.144;24.730;2023-07-30T04:26:51;147109.31;;;22.35;65.09
5877;BME280;2964;42.144;24.730;2023-07-30T04:29:18;147101.72;;;22.32;65.25
5877;BME280;2964;42.144;24.730;2023-07-30T04:31:45;147086.50;;;22.26;66.26
5877;BME280;2964;42.144;24.730;2023-07-30T04:34:12;147000.31;;;21.91;67.53
5877;BME280;2964;42.144;24.730;2023-07-30T04:36:39;147075.06;;;22.21;67.07
5877;BME280;2964;42.144;24.730;2023-07-30T04:39:05;147208.16;;;22.75;65.50
5877;BME280;2964;42.144;24.730;2023-07-30T04:41:32;147248.75;;;22.91;64.13
5877;BME280;2964;42.144;24.730;2023-07-30T04:43:59;147447.88;;;23.72;61.70
5877;BME280;2964;42.144;24.730;2023-07-30T04:46:25;147822.34;;;25.23;56.80
5877;BME280;2964;42.144;24.730;2023-07-30T04:48:53;147983.59;;;25.89;54.26
5877;BME280;2964;42.144;24.730;2023-07-30T04:51:20;148267.03;;;27.03;50.20
5877;BME280;2964;42.144;24.730;2023-07-30T04:53:47;148511.28;;;28.02;48.45
5877;BME280;2964;42.144;24.730;2023-07-30T04:56:13;148633.34;;;28.51;46.31
5877;BME280;2964;42.144;24.730;2023-07-30T04:58:40;148503.63;;;27.99;49.25
5877;BME280;2964;42.144;24.730;2023-07-30T05:01:06;148791.25;;;29.15;45.28
5877;BME280;2964;42.144;24.730;2023-07-30T05:03:33;148814.16;;;29.24;45.76
5877;BME280;2964;42.144;24.730;2023-07-30T05:06:01;149030.63;;;30.11;43.18
5877;BME280;2964;42.144;24.730;2023-07-30T05:08:28;149214.09;;;30.85;40.39
5877;BME280;2964;42.144;24.730;2023-07-30T05:10:55;149360.69;;;31.44;40.91
5877;BME280;2964;42.144;24.730;2023-07-30T05:13:21;149599.16;;;32.40;38.28
5877;BME280;2964;42.144;24.730;2023-07-30T05:15:48;149726.75;;;32.92;37.60
5877;BME280;2964;42.144;24.730;2023-07-30T05:18:15;149794.41;;;33.19;35.47
5877;BME280;2964;42.144;24.730;2023-07-30T05:20:41;149890.13;;;33.57;37.24
5877;BME280;2964;42.144;24.730;2023-07-30T05:23:09;149969.28;;;33.89;36.17
5877;BME280;2964;42.144;24.730;2023-07-30T05:25:36;150081.63;;;34.34;35.95
5877;BME280;2964;42.144;24.730;2023-07-30T05:28:03;150270.69;;;35.10;33.23
5877;BME280;2964;42.144;24.730;2023-07-30T05:30:30;150406.09;;;35.65;32.12
5877;BME280;2964;42.144;24.730;2023-07-30T05:32:56;150482.81;;;35.95;32.06
5877;BME280;2964;42.144;24.730;2023-07-30T05:35:23;150439.34;;;35.78;30.83
5877;BME280;2964;42.144;24.730;2023-07-30T05:37:49;150477.69;;;35.93;31.05
5877;BME280;2964;42.144;24.730;2023-07-30T05:40:18;149544.34;;;32.18;39.77
5877;BME280;2964;42.144;24.730;2023-07-30T05:42:44;149665.53;;;32.67;37.00
5877;BME280;2964;42.144;24.730;2023-07-30T05:45:12;149785.47;;;33.15;36.33
5877;BME280;2964;42.144;24.730;2023-07-30T05:47:38;150021.59;;;34.10;36.46
5877;BME280;2964;42.144;24.730;2023-07-30T05:50:06;149576.22;;;32.31;37.47
5877;BME280;2964;42.144;24.730;2023-07-30T05:52:33;150053.53;;;34.23;34.36
5877;BME280;2964;42.144;24.730;2023-07-30T05:55:00;149627.22;;;32.51;35.58
5877;BME280;2964;42.144;24.730;2023-07-30T05:57:29;149201.34;;;30.80;39.54
5877;BME280;2964;42.144;24.730;2023-07-30T05:59:56;149784.22;;;33.15;35.71
5877;BME280;2964;42.144;24.730;2023-07-30T06:02:23;149914.41;;;33.67;35.15
5877;BME280;2964;42.144;24.730;2023-07-30T06:04:49;150217.03;;;34.89;33.71
5877;BME280;2964;42.144;24.730;2023-07-30T06:07:16;150171.06;;;34.70;31.89
5877;BME280;2964;42.144;24.730;2023-07-30T06:09:43;150389.50;;;35.58;31.44
5877;BME280;2964;42.144;24.730;2023-07-30T06:12:10;150375.41;;;35.52;31.71
5877;BME280;2964;42.144;24.730;2023-07-30T06:14:38;149983.31;;;33.95;33.21
5877;BME280;2964;42.144;24.730;2023-07-30T06:17:05;150347.31;;;35.41;31.12
5877;BME280;2964;42.144;24.730;2023-07-30T06:19:32;150390.78;;;35.59;29.53
5877;BME280;2964;42.144;24.730;2023-07-30T06:21:58;150651.56;;;36.63;29.53
5877;BME280;2964;42.144;24.730;2023-07-30T06:24:25;149864.56;;;33.47;32.58
5877;BME280;2964;42.144;24.730;2023-07-30T06:26:52;150334.59;;;35.36;30.88
5877;BME280;2964;42.144;24.730;2023-07-30T06:29:18;150375.41;;;35.52;30.60
5877;BME280;2964;42.144;24.730;2023-07-30T06:31:46;150620.88;;;36.51;31.11
5877;BME280;2964;42.144;24.730;2023-07-30T06:34:13;150541.66;;;36.19;29.84
5877;BME280;2964;42.144;24.730;2023-07-30T06:36:40;150706.56;;;36.85;28.17
5877;BME280;2964;42.144;24.730;2023-07-30T06:39:06;150551.84;;;36.23;27.25
5877;BME280;2964;42.144;24.730;2023-07-30T06:41:33;150188.94;;;34.77;31.16
5877;BME280;2964;42.144;24.730;2023-07-30T06:44:00;149998.59;;;34.01;32.65
5877;BME280;2964;42.144;24.730;2023-07-30T06:46:26;150344.78;;;35.40;32.17
5877;BME280;2964;42.144;24.730;2023-07-30T06:48:54;150770.44;;;37.11;29.10
5877;BME280;2964;42.144;24.730;2023-07-30T06:51:24;151101.88;;;38.44;26.11
5877;BME280;2964;42.144;24.730;2023-07-30T06:53:51;150692.50;;;36.80;27.21
5877;BME280;2964;42.144;24.730;2023-07-30T06:56:17;150610.66;;;36.47;29.35
5877;BME280;2964;42.144;24.730;2023-07-30T06:58:44;150971.31;;;37.92;28.63
5877;BME280;2964;42.144;24.730;2023-07-30T07:01:11;151054.50;;;38.25;26.25
5877;BME280;2964;42.144;24.730;2023-07-30T07:03:37;151234.97;;;38.97;27.09
5877;BME280;2964;42.144;24.730;2023-07-30T07:06:05;151327.16;;;39.34;26.33
5877;BME280;2964;42.144;24.730;2023-07-30T07:08:32;151849.84;;;41.44;22.79
5877;BME280;2964;42.144;24.730;2023-07-30T07:10:58;152001.13;;;42.04;21.71
5877;BME280;2964;42.144;24.730;2023-07-30T07:13:25;151705.06;;;40.86;23.88
5877;BME280;2964;42.144;24.730;2023-07-30T07:15:52;151857.56;;;41.47;23.54
5877;BME280;2964;42.144;24.730;2023-07-30T07:18:18;151388.66;;;39.59;24.26
5877;BME280;2964;42.144;24.730;2023-07-30T07:20:45;151373.28;;;39.53;24.90
5877;BME280;2964;42.144;24.730;2023-07-30T07:23:13;151037.91;;;38.18;26.40
5877;BME280;2964;42.144;24.730;2023-07-30T07:25:40;151165.84;;;38.70;25.43
5877;BME280;2964;42.144;24.730;2023-07-30T07:28:06;151711.47;;;40.88;22.58
5877;BME280;2964;42.144;24.730;2023-07-30T07:30:34;150934.22;;;37.77;25.74
5877;BME280;2964;42.144;24.730;2023-07-30T07:33:01;151392.50;;;39.61;23.25
5877;BME280;2964;42.144;24.730;2023-07-30T07:35:28;152029.34;;;42.16;21.12
5877;BME280;2964;42.144;24.730;2023-07-30T07:37:55;152148.59;;;42.64;21.02
5877;BME280;2964;42.144;24.730;2023-07-30T07:40:23;151916.56;;;41.71;21.08
5877;BME280;2964;42.144;24.730;2023-07-30T07:42:50;151770.38;;;41.12;21.99
5877;BME280;2964;42.144;24.730;2023-07-30T07:45:17;152080.59;;;42.36;21.84
5877;BME280;2964;42.144;24.730;2023-07-30T07:47:43;152285.84;;;43.18;19.52
5877;BME280;2964;42.144;24.730;2023-07-30T07:50:10;152190.91;;;42.80;21.19
5877;BME280;2964;42.144;24.730;2023-07-30T07:52:36;152278.13;;;43.15;20.52
5877;BME280;2964;42.144;24.730;2023-07-30T07:55:04;152074.22;;;42.34;20.03
5877;BME280;2964;42.144;24.730;2023-07-30T07:57:32;152044.72;;;42.22;20.54
5877;BME280;2964;42.144;24.730;2023-07-30T07:59:59;151547.41;;;40.23;22.48
5877;BME280;2964;42.144;24.730;2023-07-30T08:02:25;151675.53;;;40.74;21.76
5877;BME280;2964;42.144;24.730;2023-07-30T08:04:52;150805.03;;;37.25;26.00
5877;BME280;2964;42.144;24.730;2023-07-30T08:07:19;151177.38;;;38.74;25.04
5877;BME280;2964;42.144;24.730;2023-07-30T08:09:45;151990.88;;;42.00;21.60
5877;BME280;2964;42.144;24.730;2023-07-30T08:12:12;152244.81;;;43.02;20.59
5877;BME280;2964;42.144;24.730;2023-07-30T08:14:40;151787.00;;;41.19;20.86
5877;BME280;2964;42.144;24.730;2023-07-30T08:17:07;152196.03;;;42.83;19.69
5877;BME280;2964;42.144;24.730;2023-07-30T08:19:34;152332.06;;;43.37;19.97
5877;BME280;2964;42.144;24.730;2023-07-30T08:22:00;152380.75;;;43.56;19.46
5877;BME280;2964;42.144;24.730;2023-07-30T08:24:27;152394.88;;;43.62;19.30
5877;BME280;2964;42.144;24.730;2023-07-30T08:26:54;152903.22;;;45.65;18.12
5877;BME280;2964;42.144;24.730;2023-07-30T08:29:21;153412.03;;;47.69;16.64
5877;BME280;2964;42.144;24.730;2023-07-30T08:31:49;152267.88;;;43.11;19.30
5877;BME280;2964;42.144;24.730;2023-07-30T08:34:16;152774.81;;;45.14;17.42
5877;BME280;2964;42.144;24.730;2023-07-30T08:36:43;151691.00;;;40.80;21.56
5877;BME280;2964;42.144;24.730;2023-07-30T08:39:09;152096.03;;;42.42;21.55
5877;BME280;2964;42.144;24.730;2023-07-30T08:41:36;152374.38;;;43.54;20.10
5877;BME280;2964;42.144;24.730;2023-07-30T08:44:04;152444.94;;;43.82;18.40
5877;BME280;2964;42.144;24.730;2023-07-30T08:46:31;152138.38;;;42.59;19.55
5877;BME280;2964;42.144;24.730;2023-07-30T08:48:59;151753.72;;;41.05;20.80
5877;BME280;2964;42.144;24.730;2023-07-30T08:51:26;151829.38;;;41.36;21.16
5877;BME280;2964;42.144;24.730;2023-07-30T08:53:54;152139.63;;;42.60;19.73
5877;BME280;2964;42.144;24.730;2023-07-30T08:56:22;152166.56;;;42.71;19.55
5877;BME280;2964;42.144;24.730;2023-07-30T08:58:50;151808.84;;;41.27;20.30
5877;BME280;2964;42.144;24.730;2023-07-30T09:01:19;152022.97;;;42.13;20.61
5877;BME280;2964;42.144;24.730;2023-07-30T09:03:48;152115.28;;;42.50;20.67
5877;BME280;2964;42.144;24.730;2023-07-30T09:06:18;152181.94;;;42.77;19.57
5877;BME280;2964;42.144;24.730;2023-07-30T09:08:44;151848.59;;;41.43;20.21
5877;BME280;2964;42.144;24.730;2023-07-30T09:11:11;151644.84;;;40.62;21.74
5877;BME280;2964;42.144;24.730;2023-07-30T09:13:38;151888.28;;;41.59;20.96
5877;BME280;2964;42.144;24.730;2023-07-30T09:16:09;152339.72;;;43.40;19.01
5877;BME280;2964;42.144;24.730;2023-07-30T09:18:40;152457.78;;;43.87;19.17
5877;BME280;2964;42.144;24.730;2023-07-30T09:21:07;152654.16;;;44.66;18.70
5877;BME280;2964;42.144;24.730;2023-07-30T09:23:40;153129.34;;;46.56;17.17
5877;BME280;2964;42.144;24.730;2023-07-30T09:26:07;152727.31;;;44.95;17.45
5877;BME280;2964;42.144;24.730;2023-07-30T09:28:34;152840.31;;;45.40;17.55
5877;BME280;2964;42.144;24.730;2023-07-30T09:31:01;153008.56;;;46.08;16.92
5877;BME280;2964;42.144;24.730;2023-07-30T09:33:28;153282.19;;;47.17;15.73
5877;BME280;2964;42.144;24.730;2023-07-30T09:35:55;152932.78;;;45.77;17.06
5877;BME280;2964;42.144;24.730;2023-07-30T09:38:21;152737.63;;;44.99;16.86
5877;BME280;2964;42.144;24.730;2023-07-30T09:40:50;152614.31;;;44.50;17.06
5877;BME280;2964;42.144;24.730;2023-07-30T09:43:16;151872.91;;;41.53;19.94
5877;BME280;2964;42.144;24.730;2023-07-30T09:45:45;151766.53;;;41.10;19.61
5877;BME280;2964;42.144;24.730;2023-07-30T09:48:13;151862.69;;;41.49;20.96
5877;BME280;2964;42.144;24.730;2023-07-30T09:50:41;152392.31;;;43.61;18.47
5877;BME280;2964;42.144;24.730;2023-07-30T09:53:10;151958.84;;;41.88;19.43
5877;BME280;2964;42.144;24.730;2023-07-30T09:55:38;151582.06;;;40.37;21.19
5877;BME280;2964;42.144;24.730;2023-07-30T09:58:06;152247.34;;;43.03;19.30
5877;BME280;2964;42.144;24.730;2023-07-30T10:00:36;152374.38;;;43.54;18.95
5877;BME280;2964;42.144;24.730;2023-07-30T10:03:04;152512.94;;;44.09;19.48
5877;BME280;2964;42.144;24.730;2023-07-30T10:05:33;152470.59;;;43.92;18.17
5877;BME280;2964;42.144;24.730;2023-07-30T10:08:05;152887.78;;;45.59;17.92
5877;BME280;2964;42.144;24.730;2023-07-30T10:10:34;152344.88;;;43.42;18.50
5877;BME280;2964;42.144;24.730;2023-07-30T10:13:05;151749.88;;;41.04;20.28
5877;BME280;2964;42.144;24.730;2023-07-30T10:15:35;151158.19;;;38.67;22.98
5877;BME280;2964;42.144;24.730;2023-07-30T10:18:02;150912.47;;;37.68;24.31
5877;BME280;2964;42.144;24.730;2023-07-30T10:20:29;150332.00;;;35.35;26.44
5877;BME280;2964;42.144;24.730;2023-07-30T10:22:57;150227.22;;;34.93;28.10
5877;BME280;2964;42.144;24.730;2023-07-30T10:25:28;150265.56;;;35.08;29.07
5877;BME280;2964;42.144;24.730;2023-07-30T10:27:55;150107.19;;;34.45;28.82
5877;BME280;2964;42.144;24.730;2023-07-30T10:30:30;149975.63;;;33.92;29.51
5877;BME280;2964;42.144;24.730;2023-07-30T10:33:00;149979.47;;;33.93;30.18
5877;BME280;2964;42.144;24.730;2023-07-30T10:35:43;149893.97;;;33.59;31.31
5877;BME280;2964;42.144;24.730;2023-07-30T10:38:15;149964.16;;;33.87;31.90
5877;BME280;2964;42.144;24.730;2023-07-30T10:40:42;149955.25;;;33.83;30.65
5877;BME280;2964;42.144;24.730;2023-07-30T10:43:27;149925.91;;;33.72;31.02
5877;BME280;2964;42.144;24.730;2023-07-30T10:45:54;149873.50;;;33.51;30.87
5877;BME280;2964;42.144;24.730;2023-07-30T10:48:31;149805.88;;;33.23;30.59
5877;BME280;2964;42.144;24.730;2023-07-30T10:50:59;149719.09;;;32.88;31.35
5877;BME280;2964;42.144;24.730;2023-07-30T10:53:26;149670.66;;;32.69;31.87
5877;BME280;2964;42.144;24.730;2023-07-30T10:55:53;149668.06;;;32.68;31.41
5877;BME280;2964;42.144;24.730;2023-07-30T10:58:24;149721.66;;;32.89;31.50
5877;BME280;2964;42.144;24.730;2023-07-30T11:00:51;149703.78;;;32.82;31.10
5877;BME280;2964;42.144;24.730;2023-07-30T11:03:18;149725.50;;;32.91;30.76
5877;BME280;2964;42.144;24.730;2023-07-30T11:05:47;149717.81;;;32.88;30.76
5877;BME280;2964;42.144;24.730;2023-07-30T11:08:14;149722.91;;;32.90;30.39
5877;BME280;2964;42.144;24.730;2023-07-30T11:10:42;149696.13;;;32.79;30.46
5877;BME280;2964;42.144;24.730;2023-07-30T11:13:09;149708.88;;;32.84;30.85
5877;BME280;2964;42.144;24.730;2023-07-30T11:15:40;149683.41;;;32.74;29.90
5877;BME280;2964;42.144;24.730;2023-07-30T11:18:07;149708.88;;;32.84;29.89
5877;BME280;2964;42.144;24.730;2023-07-30T11:20:34;149725.50;;;32.91;28.97
5877;BME280;2964;42.144;24.730;2023-07-30T11:23:16;149731.84;;;32.94;29.19
5877;BME280;2964;42.144;24.730;2023-07-30T11:25:45;149719.09;;;32.88;29.38
5877;BME280;2964;42.144;24.730;2023-07-30T11:28:12;149668.06;;;32.68;28.77
5877;BME280;2964;42.144;24.730;2023-07-30T11:30:39;149708.88;;;32.84;28.65
5877;BME280;2964;42.144;24.730;2023-07-30T11:33:05;149674.47;;;32.70;29.43
5877;BME280;2964;42.144;24.730;2023-07-30T11:35:32;149707.63;;;32.84;29.09
5877;BME280;2964;42.144;24.730;2023-07-30T11:37:59;149670.66;;;32.69;28.69
5877;BME280;2964;42.144;24.730;2023-07-30T11:40:27;149688.50;;;32.76;28.01
5877;BME280;2964;42.144;24.730;2023-07-30T11:42:54;149721.66;;;32.89;28.59
5877;BME280;2964;42.144;24.730;2023-07-30T11:45:22;149729.31;;;32.93;28.55
5877;BME280;2964;42.144;24.730;2023-07-30T11:47:49;149726.75;;;32.92;28.68
5877;BME280;2964;42.144;24.730;2023-07-30T11:50:17;149725.50;;;32.91;28.12
5877;BME280;2964;42.144;24.730;2023-07-30T11:52:54;149738.25;;;32.96;28.40
5877;BME280;2964;42.144;24.730;2023-07-30T11:55:21;149735.69;;;32.95;27.80
5877;BME280;2964;42.144;24.730;2023-07-30T11:57:51;149768.84;;;33.08;28.09
5877;BME280;2964;42.144;24.730;2023-07-30T12:00:20;149781.66;;;33.14;28.25
5877;BME280;2964;42.144;24.730;2023-07-30T12:02:47;149775.25;;;33.11;27.78
5877;BME280;2964;42.144;24.730;2023-07-30T12:05:16;149790.59;;;33.17;27.30
5877;BME280;2964;42.144;24.730;2023-07-30T12:07:43;149812.28;;;33.26;26.12
5877;BME280;2964;42.144;24.730;2023-07-30T12:10:11;149813.53;;;33.26;27.21
5877;BME280;2964;42.144;24.730;2023-07-30T12:12:43;149859.47;;;33.45;27.47
5877;BME280;2964;42.144;24.730;2023-07-30T12:15:12;149874.78;;;33.51;26.68
5877;BME280;2964;42.144;24.730;2023-07-30T12:17:39;149757.38;;;33.04;27.22
5877;BME280;2964;42.144;24.730;2023-07-30T12:20:06;149836.50;;;33.36;27.61
5877;BME280;2964;42.144;24.730;2023-07-30T12:22:33;149840.34;;;33.37;26.30
5877;BME280;2964;42.144;24.730;2023-07-30T12:25:01;149839.09;;;33.37;26.26
5877;BME280;2964;42.144;24.730;2023-07-30T12:27:27;149802.09;;;33.22;25.47
5877;BME280;2964;42.144;24.730;2023-07-30T12:29:54;149836.50;;;33.36;26.51
5877;BME280;2964;42.144;24.730;2023-07-30T12:32:22;149828.84;;;33.33;26.79
5877;BME280;2964;42.144;24.730;2023-07-30T12:34:49;149837.78;;;33.36;25.86
5877;BME280;2964;42.144;24.730;2023-07-30T12:37:16;149839.09;;;33.37;26.53
5877;BME280;2964;42.144;24.730;2023-07-30T12:39:43;149839.09;;;33.37;26.42
5877;BME280;2964;42.144;24.730;2023-07-30T12:42:09;149747.19;;;33.00;25.84
5877;BME280;2964;42.144;24.730;2023-07-30T12:44:36;149854.38;;;33.43;26.39
5877;BME280;2964;42.144;24.730;2023-07-30T12:47:03;149859.47;;;33.45;24.78
5877;BME280;2964;42.144;24.730;2023-07-30T12:49:31;149872.25;;;33.50;25.07
5877;BME280;2964;42.144;24.730;2023-07-30T12:51:58;149855.63;;;33.43;25.42
5877;BME280;2964;42.144;24.730;2023-07-30T12:54:24;149856.91;;;33.44;26.75
5877;BME280;2964;42.144;24.730;2023-07-30T12:56:51;149850.53;;;33.41;26.77
5877;BME280;2964;42.144;24.730;2023-07-30T12:59:18;149851.81;;;33.42;27.74
5877;BME280;2964;42.144;24.730;2023-07-30T13:01:44;149844.19;;;33.39;27.66